createdAt,value
2019-01-13T00:04:02.039Z,93.00
2019-01-13T00:06:55.285Z,93.40
2019-01-13T00:09:39.483Z,93.40
2019-01-13T00:12:35.691Z,92.90
2019-01-13T00:15:19.470Z,92.80
2019-01-13T00:18:04.458Z,92.70
2019-01-13T00:20:58.076Z,92.70
2019-01-13T00:23:43.988Z,92.50
2019-01-13T00:26:28.947Z,92.60
2019-01-13T00:29:12.973Z,93.10
2019-01-13T00:32:06.367Z,93.10
2019-01-13T00:34:51.087Z,93.60
2019-01-13T00:37:35.791Z,93.60
2019-01-13T00:40:20.833Z,93.20
2019-01-13T00:43:05.347Z,93.00
2019-01-13T00:45:50.259Z,93.00
2019-01-13T00:48:34.691Z,93.00
2019-01-13T00:51:27.838Z,93.00
2019-01-13T00:54:12.614Z,93.00
2019-01-13T00:56:57.324Z,93.20
2019-01-13T00:59:41.971Z,93.50
2019-01-13T01:02:26.775Z,93.00
2019-01-13T01:05:11.167Z,93.00
2019-01-13T01:08:03.987Z,93.00
2019-01-13T01:10:48.615Z,93.00
2019-01-13T01:13:33.259Z,92.30
2019-01-13T01:16:17.911Z,92.00
2019-01-13T01:19:11.094Z,92.10
2019-01-13T01:21:55.896Z,91.90
2019-01-13T01:24:40.828Z,92.00
2019-01-13T01:27:25.503Z,92.00
2019-01-13T01:30:09.895Z,92.20
2019-01-13T01:32:54.071Z,92.20
2019-01-13T01:35:47.883Z,92.20
2019-01-13T01:38:41.779Z,92.40
2019-01-13T01:41:26.821Z,92.50
2019-01-13T01:44:20.813Z,92.00
2019-01-13T01:47:05.699Z,92.00
2019-01-13T01:49:59.803Z,92.40
2019-01-13T01:52:53.756Z,92.30
2019-01-13T01:55:47.946Z,92.30
2019-01-13T01:58:42.021Z,92.00
2019-01-13T02:01:35.626Z,92.00
2019-01-13T02:04:20.928Z,91.90
2019-01-13T02:07:14.925Z,91.90
2019-01-13T02:10:08.500Z,91.70
2019-01-13T02:12:53.382Z,91.50
2019-01-13T02:15:38.396Z,91.90
2019-01-13T02:18:21.990Z,91.40
2019-01-13T02:21:15.585Z,91.80
2019-01-13T02:24:00.717Z,92.40
2019-01-13T02:26:54.749Z,92.70
2019-01-13T02:29:39.389Z,92.90
2019-01-13T02:32:24.529Z,92.90
2019-01-13T02:35:18.013Z,93.00
2019-01-13T02:38:03.513Z,93.10
2019-01-13T02:40:57.022Z,93.10
2019-01-13T02:43:42.737Z,93.20
2019-01-13T02:46:27.714Z,93.40
2019-01-13T02:49:12.481Z,93.80
2019-01-13T02:51:57.482Z,93.70
2019-01-13T02:54:42.465Z,93.80
2019-01-13T02:57:27.978Z,93.80
2019-01-13T03:00:21.764Z,94.10
2019-01-13T03:03:15.729Z,93.80
2019-01-13T03:06:00.819Z,93.90
2019-01-13T03:08:55.077Z,93.90
2019-01-13T03:11:49.099Z,93.00
2019-01-13T03:14:42.933Z,92.60
2019-01-13T03:17:27.721Z,92.70
2019-01-13T03:20:12.485Z,92.20
2019-01-13T03:22:57.731Z,91.70
2019-01-13T03:25:51.215Z,91.60
2019-01-13T03:28:36.165Z,91.50
2019-01-13T03:31:20.958Z,91.40
2019-01-13T03:34:05.956Z,91.40
2019-01-13T03:36:59.818Z,91.20
2019-01-13T03:39:45.027Z,90.90
2019-01-13T03:42:38.405Z,90.90
2019-01-13T03:45:23.505Z,90.70
2019-01-13T03:48:08.410Z,90.70
2019-01-13T03:50:53.182Z,90.90
2019-01-13T03:53:38.326Z,90.70
2019-01-13T03:56:32.074Z,90.60
2019-01-13T03:59:17.433Z,90.70
2019-01-13T04:02:02.973Z,90.70
2019-01-13T04:04:48.415Z,90.80
2019-01-13T04:07:42.001Z,91.00
2019-01-13T04:10:27.036Z,90.80
2019-01-13T04:13:20.944Z,90.90
2019-01-13T04:16:05.981Z,90.90
2019-01-13T04:18:59.680Z,91.00
2019-01-13T04:21:44.389Z,91.10
2019-01-13T04:24:29.339Z,90.90
2019-01-13T04:27:14.002Z,91.20
2019-01-13T04:29:58.745Z,91.10
2019-01-13T04:32:43.437Z,91.10
2019-01-13T04:35:28.437Z,90.80
2019-01-13T04:38:13.565Z,90.80
2019-01-13T04:40:58.118Z,90.80
2019-01-13T04:43:42.806Z,90.80
2019-01-13T04:46:27.950Z,90.80
2019-01-13T04:49:13.525Z,91.00
2019-01-13T04:51:58.431Z,90.90
2019-01-13T04:54:43.598Z,90.60
2019-01-13T04:57:28.613Z,90.70
2019-01-13T05:00:13.505Z,90.40
2019-01-13T05:02:58.597Z,90.40
2019-01-13T05:05:52.464Z,90.50
2019-01-13T05:08:37.149Z,90.60
2019-01-13T05:11:22.227Z,90.50
2019-01-13T05:14:16.253Z,90.30
2019-01-13T05:17:10.048Z,90.40
2019-01-13T05:19:55.196Z,90.20
2019-01-13T05:22:48.921Z,90.40
2019-01-13T05:25:33.625Z,90.30
2019-01-13T05:28:18.597Z,90.20
2019-01-13T05:31:03.385Z,90.10
2019-01-13T05:33:48.182Z,90.30
2019-01-13T05:36:32.813Z,90.10
2019-01-13T05:39:17.529Z,89.80
2019-01-13T05:42:02.634Z,90.00
2019-01-13T05:44:47.502Z,89.80
2019-01-13T05:47:33.066Z,89.90
2019-01-13T05:50:18.757Z,89.80
2019-01-13T05:53:13.425Z,89.10
2019-01-13T05:56:07.141Z,89.50
2019-01-13T05:59:00.913Z,88.70
2019-01-13T06:01:49.388Z,88.90
2019-01-13T06:04:33.557Z,90.20
2019-01-13T06:07:18.421Z,89.70
2019-01-13T06:10:03.183Z,89.70
2019-01-13T06:12:48.281Z,90.00
2019-01-13T06:15:42.128Z,90.00
2019-01-13T06:18:26.700Z,90.00
2019-01-13T06:21:11.853Z,89.30
2019-01-13T06:23:56.965Z,89.50
2019-01-13T06:26:50.485Z,89.30
2019-01-13T06:29:35.257Z,89.80
2019-01-13T06:32:20.248Z,89.80
2019-01-13T06:35:05.174Z,90.20
2019-01-13T06:37:50.769Z,89.60
2019-01-13T06:40:35.689Z,89.70
2019-01-13T06:43:20.433Z,89.00
2019-01-13T06:46:05.181Z,89.30
2019-01-13T06:48:49.813Z,89.30
2019-01-13T06:51:34.590Z,89.50
2019-01-13T06:54:20.458Z,88.90
2019-01-13T06:57:05.523Z,88.60
2019-01-13T06:59:59.152Z,88.10
2019-01-13T07:02:44.274Z,88.50
2019-01-13T07:05:38.325Z,88.20
2019-01-13T07:08:31.981Z,87.90
2019-01-13T07:11:16.453Z,88.30
2019-01-13T07:14:01.225Z,88.80
2019-01-13T07:16:46.342Z,89.60
2019-01-13T07:19:31.428Z,89.60
2019-01-13T07:22:16.973Z,89.70
2019-01-13T07:25:01.584Z,90.00
2019-01-13T07:27:55.281Z,90.40
2019-01-13T07:30:49.421Z,90.20
2019-01-13T07:33:43.171Z,90.50
2019-01-13T07:36:27.967Z,90.90
2019-01-13T07:39:11.661Z,90.60
2019-01-13T07:42:05.069Z,91.20
2019-01-13T07:44:50.809Z,91.70
2019-01-13T07:47:44.152Z,92.10
2019-01-13T07:50:29.045Z,92.20
2019-01-13T07:53:14.436Z,92.30
2019-01-13T07:56:08.105Z,92.40
2019-01-13T07:59:01.950Z,92.40
2019-01-13T08:01:47.048Z,92.30
2019-01-13T08:04:41.000Z,92.30
2019-01-13T08:07:34.774Z,92.20
2019-01-13T08:10:19.373Z,92.30
2019-01-13T08:13:04.014Z,92.40
2019-01-13T08:15:49.321Z,92.00
2019-01-13T08:18:34.541Z,92.00
2019-01-13T08:21:28.636Z,92.20
2019-01-13T08:24:22.369Z,92.00
2019-01-13T08:27:06.925Z,91.50
2019-01-13T08:29:51.377Z,92.00
2019-01-13T08:32:35.925Z,92.20
2019-01-13T08:35:20.747Z,92.10
2019-01-13T08:38:05.353Z,91.70
2019-01-13T08:40:58.771Z,92.00
2019-01-13T08:43:44.165Z,92.50
2019-01-13T08:46:43.605Z,92.50
2019-01-13T08:49:28.277Z,92.60
2019-01-13T08:52:13.004Z,92.80
2019-01-13T08:54:58.096Z,92.30
2019-01-13T08:57:42.879Z,92.60
2019-01-13T09:00:27.721Z,92.60
2019-01-13T09:03:12.680Z,92.60
2019-01-13T09:06:06.903Z,92.50
2019-01-13T09:09:00.981Z,92.90
2019-01-13T09:11:46.943Z,93.10
2019-01-13T09:14:32.017Z,93.60
2019-01-13T09:17:16.609Z,93.20
2019-01-13T09:20:01.633Z,92.80
2019-01-13T09:22:56.645Z,93.00
2019-01-13T09:25:41.329Z,93.50
2019-01-13T09:28:26.537Z,93.90
2019-01-13T09:31:10.843Z,94.10
2019-01-13T09:34:04.315Z,94.40
2019-01-13T09:36:50.204Z,94.40
2019-01-13T09:39:35.512Z,94.60
2019-01-13T09:42:20.375Z,94.70
2019-01-13T09:45:05.918Z,94.80
2019-01-13T09:47:51.310Z,94.90
2019-01-13T09:50:37.156Z,95.10
2019-01-13T09:53:21.745Z,94.90
2019-01-13T09:56:15.262Z,95.20
2019-01-13T09:58:59.893Z,95.30
2019-01-13T10:01:44.908Z,95.20
2019-01-13T10:04:30.042Z,95.30
2019-01-13T10:07:25.208Z,95.50
2019-01-13T10:10:10.254Z,95.60
2019-01-13T10:13:05.002Z,95.90
2019-01-13T10:15:50.117Z,96.30
2019-01-13T10:18:35.276Z,96.10
2019-01-13T10:21:20.145Z,95.90
2019-01-13T10:24:04.934Z,96.10
2019-01-13T10:26:50.183Z,96.30
2019-01-13T10:29:43.509Z,96.40
2019-01-13T10:32:28.393Z,96.40
2019-01-13T10:35:13.381Z,96.50
2019-01-13T10:37:59.945Z,96.50
2019-01-13T10:40:44.555Z,96.40
2019-01-13T10:43:29.557Z,96.50
2019-01-13T10:46:14.081Z,96.10
2019-01-13T10:48:59.013Z,96.20
2019-01-13T10:51:43.973Z,96.10
2019-01-13T10:54:29.192Z,96.20
2019-01-13T10:57:22.780Z,95.90
2019-01-13T11:00:08.117Z,95.40
2019-01-13T11:02:53.444Z,95.70
2019-01-13T11:05:38.690Z,95.80
2019-01-13T11:08:24.023Z,95.80
2019-01-13T11:11:17.520Z,96.00
2019-01-13T11:14:02.805Z,95.60
2019-01-13T11:16:56.305Z,95.50
2019-01-13T11:19:41.121Z,95.90
2019-01-13T11:22:26.040Z,95.40
2019-01-13T11:25:11.266Z,95.00
2019-01-13T11:28:05.290Z,95.40
2019-01-13T11:30:59.098Z,95.50
2019-01-13T11:33:43.789Z,95.80
2019-01-13T11:36:28.436Z,96.20
2019-01-13T11:39:12.753Z,96.20
2019-01-13T11:41:58.134Z,96.20
2019-01-13T11:44:43.737Z,96.20
2019-01-13T11:47:37.276Z,96.40
2019-01-13T11:50:22.377Z,96.40
2019-01-13T11:53:08.757Z,96.40
2019-01-13T11:56:02.941Z,96.40
2019-01-13T11:58:57.369Z,96.40
2019-01-13T12:01:42.449Z,96.40
2019-01-13T12:04:27.035Z,96.40
2019-01-13T12:07:11.827Z,96.10
2019-01-13T12:10:04.926Z,96.00
2019-01-13T12:12:49.470Z,96.10
2019-01-13T12:15:34.681Z,96.10
2019-01-13T12:18:20.245Z,96.10
2019-01-13T12:21:13.946Z,96.30
2019-01-13T12:24:08.054Z,96.50
2019-01-13T12:27:02.449Z,96.60
2019-01-13T12:29:55.947Z,96.40
2019-01-13T12:32:40.967Z,96.40
2019-01-13T12:35:26.780Z,96.20
2019-01-13T12:38:11.588Z,96.20
2019-01-13T12:40:56.658Z,96.10
2019-01-13T12:43:42.013Z,96.30
2019-01-13T12:46:27.605Z,96.20
2019-01-13T12:49:12.775Z,96.30
2019-01-13T12:51:57.557Z,96.30
2019-01-13T12:54:42.575Z,96.60
2019-01-13T12:57:36.720Z,96.70
2019-01-13T13:00:24.205Z,96.30
2019-01-13T13:03:09.227Z,96.70
2019-01-13T13:05:53.673Z,96.70
2019-01-13T13:08:38.729Z,96.70
2019-01-13T13:11:23.892Z,96.80
2019-01-13T13:14:09.017Z,96.90
2019-01-13T13:16:55.095Z,96.80
2019-01-13T13:19:49.101Z,96.90
2019-01-13T13:22:36.668Z,96.70
2019-01-13T13:25:21.269Z,96.70
2019-01-13T13:28:06.708Z,96.50
2019-01-13T13:30:51.573Z,96.90
2019-01-13T13:33:45.711Z,96.70
2019-01-13T13:36:39.889Z,96.70
2019-01-13T13:39:34.253Z,97.00
2019-01-13T13:42:28.537Z,97.10
2019-01-13T13:45:13.544Z,97.20
2019-01-13T13:47:59.037Z,97.70
2019-01-13T13:50:43.594Z,97.10
2019-01-13T13:53:28.522Z,96.90
2019-01-13T13:56:13.504Z,96.20
2019-01-13T13:58:58.301Z,95.90
2019-01-13T14:01:42.666Z,95.60
2019-01-13T14:04:27.257Z,95.80
2019-01-13T14:07:11.967Z,95.60
2019-01-13T14:09:57.009Z,95.30
2019-01-13T14:12:42.021Z,94.30
2019-01-13T14:15:27.310Z,94.10
2019-01-13T14:18:21.084Z,94.00
2019-01-13T14:21:05.860Z,94.00
2019-01-13T14:23:59.795Z,93.70
2019-01-13T14:26:44.869Z,93.30
2019-01-13T14:29:29.176Z,92.70
2019-01-13T14:32:14.111Z,92.80
2019-01-13T14:34:58.669Z,92.30
2019-01-13T14:37:43.957Z,92.30
2019-01-13T14:40:29.189Z,92.00
2019-01-13T14:43:23.086Z,92.00
2019-01-13T14:46:17.040Z,91.80
2019-01-13T14:49:10.854Z,92.20
2019-01-13T14:51:55.641Z,91.50
2019-01-13T14:54:40.774Z,92.40
2019-01-13T14:57:34.453Z,92.50
2019-01-13T15:00:19.688Z,92.60
2019-01-13T15:03:13.374Z,92.60
2019-01-13T15:05:58.112Z,93.20
2019-01-13T15:08:43.053Z,93.70
2019-01-13T15:11:27.809Z,92.80
2019-01-13T15:14:12.966Z,93.30
2019-01-13T15:17:07.065Z,93.50
2019-01-13T15:20:00.998Z,93.10
2019-01-13T15:22:45.892Z,92.90
2019-01-13T15:25:39.832Z,92.90
2019-01-13T15:28:24.906Z,92.90
2019-01-13T15:31:18.808Z,93.10
2019-01-13T15:34:07.149Z,92.90
2019-01-13T15:36:49.904Z,92.90
2019-01-13T15:39:44.181Z,93.40
2019-01-13T15:42:38.154Z,92.90
2019-01-13T15:45:23.101Z,92.90
2019-01-13T15:48:16.877Z,93.20
2019-01-13T15:51:01.725Z,93.50
2019-01-13T15:53:46.924Z,93.90
2019-01-13T15:56:40.556Z,93.70
2019-01-13T15:59:25.400Z,94.00
2019-01-13T16:02:10.608Z,93.50
2019-01-13T16:05:04.413Z,94.10
2019-01-13T16:07:49.129Z,93.70
2019-01-13T16:10:33.889Z,93.90
2019-01-13T16:13:19.037Z,93.50
2019-01-13T16:16:19.114Z,93.10
2019-01-13T16:19:13.094Z,93.80
2019-01-13T16:22:06.993Z,93.40
2019-01-13T16:24:50.297Z,93.60
2019-01-13T16:30:46.617Z,93.50
2019-01-13T16:33:31.885Z,94.40
2019-01-13T16:36:17.002Z,93.50
2019-01-13T16:39:10.432Z,93.90
2019-01-13T16:41:54.963Z,93.70
2019-01-13T16:44:40.133Z,94.20
2019-01-13T16:47:24.415Z,94.10
2019-01-13T16:50:09.177Z,94.10
2019-01-13T16:52:54.380Z,94.80
2019-01-13T16:55:39.185Z,94.30
2019-01-13T16:58:23.901Z,94.60
2019-01-13T17:01:09.282Z,94.60
2019-01-13T17:04:03.190Z,94.60
2019-01-13T17:06:48.517Z,95.00
2019-01-13T17:09:42.461Z,95.00
2019-01-13T17:12:36.137Z,95.00
2019-01-13T17:15:20.992Z,94.90
2019-01-13T17:18:05.972Z,94.60
2019-01-13T17:21:00.145Z,94.60
2019-01-13T17:23:54.244Z,94.40
2019-01-13T17:26:48.033Z,94.30
2019-01-13T17:29:32.645Z,94.50
2019-01-13T17:32:17.298Z,94.00
2019-01-13T17:35:11.552Z,94.00
2019-01-13T17:37:56.383Z,92.90
2019-01-13T17:40:41.744Z,92.70
2019-01-13T17:43:35.504Z,92.90
2019-01-13T17:46:20.590Z,93.30
2019-01-13T17:49:14.311Z,93.20
2019-01-13T17:51:59.200Z,93.00
2019-01-13T17:54:44.001Z,93.00
2019-01-13T17:57:28.826Z,92.90
2019-01-13T18:00:22.648Z,92.90
2019-01-13T18:03:07.205Z,93.30
2019-01-13T18:05:52.189Z,92.90
2019-01-13T18:08:37.637Z,92.90
2019-01-13T18:11:31.557Z,93.60
2019-01-13T18:14:25.843Z,93.50
2019-01-13T18:17:19.604Z,93.10
2019-01-13T18:20:13.440Z,93.40
2019-01-13T18:22:58.365Z,93.40
2019-01-13T18:25:43.170Z,93.20
2019-01-13T18:28:28.145Z,93.90
2019-01-13T18:31:21.766Z,93.90
2019-01-13T18:34:07.081Z,93.90
2019-01-13T18:37:01.848Z,93.50
2019-01-13T18:39:46.833Z,93.50
2019-01-13T18:42:31.489Z,93.70
2019-01-13T18:45:16.626Z,93.60
2019-01-13T18:48:01.517Z,93.50
2019-01-13T18:50:48.120Z,93.70
2019-01-13T18:53:32.587Z,93.40
2019-01-13T18:56:17.341Z,93.60
2019-01-13T18:59:02.285Z,93.60
2019-01-13T19:01:47.521Z,93.80
2019-01-13T19:04:41.630Z,93.80
2019-01-13T19:07:26.689Z,93.90
2019-01-13T19:10:21.719Z,93.30
2019-01-13T19:13:07.197Z,93.10
2019-01-13T19:16:01.018Z,92.90
2019-01-13T19:18:45.979Z,93.00
2019-01-13T19:21:39.882Z,92.80
2019-01-13T19:24:24.681Z,92.20
2019-01-13T19:27:09.917Z,92.40
2019-01-13T19:30:03.674Z,92.10
2019-01-13T19:32:49.757Z,92.00
2019-01-13T19:35:35.190Z,92.20
2019-01-13T19:38:28.861Z,92.00
2019-01-13T19:41:13.711Z,92.00
2019-01-13T19:43:58.906Z,92.00
2019-01-13T19:46:52.765Z,91.80
2019-01-13T19:49:37.353Z,91.80
2019-01-13T19:52:22.797Z,91.90
2019-01-13T19:55:07.518Z,91.70
2019-01-13T19:58:00.946Z,91.50
2019-01-13T20:00:45.737Z,91.40
2019-01-13T20:03:30.733Z,90.90
2019-01-13T20:06:17.069Z,91.20
2019-01-13T20:09:02.055Z,91.30
2019-01-13T20:11:57.925Z,91.40
2019-01-13T20:14:51.853Z,92.10
2019-01-13T20:17:37.970Z,92.20
2019-01-13T20:20:22.871Z,92.80
2019-01-13T20:23:08.074Z,93.10
2019-01-13T20:26:01.622Z,93.60
2019-01-13T20:28:46.474Z,93.60
2019-01-13T20:31:30.997Z,93.90
2019-01-13T20:34:15.571Z,94.40
2019-01-13T20:37:00.089Z,94.50
2019-01-13T20:39:45.161Z,94.90
2019-01-13T20:42:31.381Z,94.90
2019-01-13T20:45:15.861Z,94.80
2019-01-13T20:48:09.591Z,95.00
2019-01-13T20:50:54.693Z,95.20
2019-01-13T20:53:48.361Z,95.10
2019-01-13T20:56:33.494Z,94.80
2019-01-13T20:59:27.821Z,94.80
2019-01-13T21:02:21.221Z,94.50
2019-01-13T21:05:06.801Z,94.80
2019-01-13T21:08:00.556Z,94.50
2019-01-13T21:10:46.798Z,94.50
2019-01-13T21:13:31.700Z,94.60
2019-01-13T21:16:17.901Z,94.60
2019-01-13T21:19:03.462Z,94.80
2019-01-13T21:21:48.761Z,94.20
2019-01-13T21:24:43.417Z,93.90
2019-01-13T21:27:28.980Z,93.90
2019-01-13T21:30:14.047Z,93.50
2019-01-13T21:32:59.088Z,93.60
2019-01-13T21:35:43.675Z,93.50
2019-01-13T21:38:28.785Z,92.80
2019-01-13T21:41:13.232Z,92.80
2019-01-13T21:43:57.674Z,93.00
2019-01-13T21:46:42.988Z,93.10
2019-01-13T21:49:27.981Z,92.80
2019-01-13T21:52:13.178Z,92.80
2019-01-13T21:55:07.033Z,93.10
2019-01-13T21:57:51.539Z,92.70
2019-01-13T22:00:36.942Z,92.80
2019-01-13T22:03:36.954Z,92.60
2019-01-13T22:06:30.928Z,92.50
2019-01-13T22:09:24.976Z,92.80
2019-01-13T22:12:10.025Z,92.30
2019-01-13T22:15:03.846Z,91.90
2019-01-13T22:17:48.637Z,91.50
2019-01-13T22:20:33.610Z,91.70
2019-01-13T22:23:27.834Z,91.30
2019-01-13T22:26:21.901Z,91.30
2019-01-13T22:29:15.873Z,91.20
2019-01-13T22:32:09.513Z,91.50
2019-01-13T22:34:54.873Z,90.70
2019-01-13T22:37:55.454Z,90.80
2019-01-13T22:40:36.597Z,91.00
2019-01-13T22:43:21.115Z,91.80
2019-01-13T22:46:05.790Z,91.70
2019-01-13T22:48:50.757Z,92.50
2019-01-13T22:51:35.582Z,92.10
2019-01-13T22:54:20.366Z,92.60
2019-01-13T22:57:05.726Z,92.60
2019-01-13T22:59:59.950Z,93.20
2019-01-13T23:03:02.097Z,92.80
2019-01-13T23:05:47.259Z,93.40
2019-01-13T23:08:32.431Z,92.80
2019-01-13T23:11:17.906Z,93.00
2019-01-13T23:14:12.005Z,92.90
2019-01-13T23:17:05.562Z,92.80
2019-01-13T23:19:50.890Z,92.80
2019-01-13T23:22:44.832Z,93.10
2019-01-13T23:25:38.601Z,93.40
2019-01-13T23:28:23.825Z,93.50
2019-01-13T23:31:17.882Z,93.90
2019-01-13T23:34:11.370Z,94.10
2019-01-13T23:36:56.929Z,93.90
2019-01-13T23:39:50.632Z,92.50
2019-01-13T23:42:35.725Z,91.80
2019-01-13T23:45:29.778Z,92.10
2019-01-13T23:48:23.725Z,91.90
2019-01-13T23:51:08.849Z,91.90
2019-01-13T23:54:03.232Z,92.30
2019-01-13T23:56:47.985Z,92.50
2019-01-13T23:59:32.816Z,93.20
